createdAt,value
2023-05-10T00:00:11.092Z,23.07
2023-05-10T00:01:17.204Z,23.06
2023-05-10T00:02:23.358Z,23.06
2023-05-10T00:03:29.437Z,23.05
2023-05-10T00:04:35.478Z,23
2023-05-10T00:05:41.588Z,22.97
2023-05-10T00:06:47.681Z,23.06
2023-05-10T00:07:53.761Z,23.04
2023-05-10T00:08:59.890Z,23.01
2023-05-10T00:10:05.950Z,23
2023-05-10T00:11:12.029Z,23.03
2023-05-10T00:12:18.139Z,23.04
2023-05-10T00:13:24.308Z,23.09
2023-05-10T00:14:30.324Z,23.08
2023-05-10T00:15:36.405Z,23.09
2023-05-10T00:16:42.529Z,23.09
2023-05-10T00:17:48.632Z,23.08
2023-05-10T00:18:54.693Z,23.05
2023-05-10T00:20:00.785Z,23.02
2023-05-10T00:21:06.885Z,23.07
2023-05-10T00:22:12.997Z,23.07
2023-05-10T00:23:19.090Z,23.07
2023-05-10T00:24:25.170Z,23.03
2023-05-10T00:25:31.266Z,23.03
2023-05-10T00:26:37.277Z,23.06
2023-05-10T00:27:43.394Z,23.06
2023-05-10T00:28:49.546Z,23.07
2023-05-10T00:29:55.640Z,23.02
2023-05-10T00:31:01.748Z,23.07
2023-05-10T00:32:07.845Z,23.07
2023-05-10T00:33:13.916Z,23.06
2023-05-10T00:34:20.032Z,23.03
2023-05-10T00:35:26.113Z,23.07
2023-05-10T00:36:32.312Z,23.05
2023-05-10T00:37:38.244Z,22.99
2023-05-10T00:38:44.434Z,23.03
2023-05-10T00:39:50.491Z,23.04
2023-05-10T00:40:56.532Z,23.05
2023-05-10T00:42:02.692Z,23.06
2023-05-10T00:43:08.785Z,23
2023-05-10T00:44:14.869Z,23.04
2023-05-10T00:46:27.142Z,23.06
2023-05-10T00:47:33.216Z,23.01
2023-05-10T00:48:39.282Z,23.04
2023-05-10T00:49:45.343Z,23.07
2023-05-10T00:50:51.347Z,23.04
2023-05-10T00:51:57.536Z,23.07
2023-05-10T00:53:03.618Z,23.06
2023-05-10T00:54:09.754Z,23.04
2023-05-10T00:55:15.851Z,23.06
2023-05-10T00:56:21.954Z,23.01
2023-05-10T00:57:28.032Z,23.01
2023-05-10T00:58:34.150Z,23.03
2023-05-10T00:59:40.206Z,23.04
2023-05-10T01:00:46.295Z,22.99
2023-05-10T01:01:52.431Z,23.02
2023-05-10T01:02:58.556Z,22.98
2023-05-10T01:04:04.587Z,23.01
2023-05-10T01:05:10.715Z,23
2023-05-10T01:06:16.774Z,23
2023-05-10T01:07:22.866Z,23
2023-05-10T01:08:28.971Z,23
2023-05-10T01:09:35.068Z,23.01
2023-05-10T01:10:41.073Z,23.01
2023-05-10T01:11:47.167Z,23.01
2023-05-10T01:12:53.399Z,23.05
2023-05-10T01:13:59.442Z,23.03
2023-05-10T01:15:05.537Z,22.99
2023-05-10T01:16:11.663Z,22.99
2023-05-10T01:17:17.736Z,22.98
2023-05-10T01:18:23.822Z,23.01
2023-05-10T01:19:29.880Z,22.98
2023-05-10T01:20:35.998Z,23
2023-05-10T01:21:42.086Z,22.95
2023-05-10T01:22:48.108Z,22.98
2023-05-10T01:23:54.278Z,23.01
2023-05-10T01:25:00.362Z,23.03
2023-05-10T01:26:06.473Z,22.99
2023-05-10T01:27:12.589Z,23.02
2023-05-10T01:28:18.677Z,23.01
2023-05-10T01:29:24.769Z,22.99
2023-05-10T01:30:30.894Z,22.99
2023-05-10T01:31:37.005Z,23.01
2023-05-10T01:32:43.066Z,23.04
2023-05-10T01:33:49.148Z,23
2023-05-10T01:34:55.150Z,22.98
2023-05-10T01:36:01.369Z,22.97
2023-05-10T01:37:07.472Z,22.97
2023-05-10T01:38:13.522Z,22.98
2023-05-10T01:39:19.612Z,22.99
2023-05-10T01:40:25.705Z,22.95
2023-05-10T01:41:31.793Z,22.97
2023-05-10T01:42:37.909Z,22.96
2023-05-10T01:43:44.011Z,22.96
2023-05-10T01:44:50.090Z,22.98
2023-05-10T01:45:56.191Z,22.98
2023-05-10T01:47:02.347Z,22.99
2023-05-10T01:48:08.545Z,22.96
2023-05-10T01:49:14.459Z,22.97
2023-05-10T01:50:20.571Z,23
2023-05-10T01:51:26.643Z,22.99
2023-05-10T01:52:32.775Z,23.01
2023-05-10T01:53:38.877Z,23.02
2023-05-10T01:54:44.920Z,23
2023-05-10T01:55:51.046Z,22.97
2023-05-10T01:56:57.143Z,22.98
2023-05-10T01:58:03.229Z,23
2023-05-10T01:59:09.321Z,23
2023-05-10T02:00:15.795Z,22.97
2023-05-10T02:01:21.596Z,22.96
2023-05-10T02:02:27.622Z,22.96
2023-05-10T02:03:33.716Z,22.95
2023-05-10T02:04:39.822Z,22.97
2023-05-10T02:05:45.912Z,22.93
2023-05-10T02:06:51.961Z,22.96
2023-05-10T02:07:57.980Z,22.99
2023-05-10T02:09:04.165Z,23.02
2023-05-10T02:10:10.240Z,22.97
2023-05-10T02:11:16.374Z,23
2023-05-10T02:12:22.448Z,22.97
2023-05-10T02:13:28.616Z,22.97
2023-05-10T02:14:34.623Z,23.01
2023-05-10T02:15:40.727Z,22.99
2023-05-10T02:16:46.856Z,22.99
2023-05-10T02:17:52.856Z,23.02
2023-05-10T02:18:59.011Z,22.99
2023-05-10T02:20:05.082Z,22.99
2023-05-10T02:21:11.197Z,23.01
2023-05-10T02:22:17.276Z,23
2023-05-10T02:23:23.414Z,22.96
2023-05-10T02:24:29.516Z,22.98
2023-05-10T02:25:35.584Z,22.98
2023-05-10T02:26:41.680Z,22.96
2023-05-10T02:27:47.776Z,22.92
2023-05-10T02:28:53.882Z,22.94
2023-05-10T02:29:59.964Z,22.92
2023-05-10T02:31:06.076Z,22.94
2023-05-10T02:32:12.217Z,22.95
2023-05-10T02:33:18.253Z,22.98
2023-05-10T02:34:24.351Z,22.95
2023-05-10T02:35:36.508Z,22.94
2023-05-10T02:36:42.669Z,22.94
2023-05-10T02:37:48.778Z,23
2023-05-10T02:38:54.872Z,22.98
2023-05-10T02:40:00.965Z,22.95
2023-05-10T02:41:07.059Z,22.96
2023-05-10T02:42:13.177Z,22.94
2023-05-10T02:43:19.249Z,22.95
2023-05-10T02:44:25.378Z,22.98
2023-05-10T02:45:31.506Z,22.95
2023-05-10T02:46:37.582Z,22.99
2023-05-10T02:47:43.574Z,22.95
2023-05-10T02:48:49.640Z,22.92
2023-05-10T02:49:55.797Z,22.94
2023-05-10T02:51:01.911Z,22.97
2023-05-10T02:52:08.025Z,22.92
2023-05-10T02:53:14.112Z,22.95
2023-05-10T02:54:20.210Z,22.97
2023-05-10T02:55:26.219Z,22.97
2023-05-10T02:56:32.310Z,22.95
2023-05-10T02:57:38.469Z,22.97
2023-05-10T02:58:44.600Z,23
2023-05-10T02:59:50.695Z,22.97
2023-05-10T03:00:56.757Z,22.94
2023-05-10T03:02:02.875Z,22.91
2023-05-10T03:03:09.030Z,22.98
2023-05-10T03:04:15.069Z,23.01
2023-05-10T03:05:21.158Z,22.99
2023-05-10T03:06:27.246Z,22.98
2023-05-10T03:07:33.246Z,22.93
2023-05-10T03:08:39.358Z,22.94
2023-05-10T03:09:45.441Z,22.96
2023-05-10T03:10:51.614Z,22.97
2023-05-10T03:11:57.719Z,22.95
2023-05-10T03:13:03.859Z,22.95
2023-05-10T03:14:09.954Z,22.96
2023-05-10T03:15:15.995Z,22.93
2023-05-10T03:16:22.109Z,22.94
2023-05-10T03:17:28.208Z,22.96
2023-05-10T03:18:34.276Z,22.94
2023-05-10T03:19:40.379Z,22.93
2023-05-10T03:20:46.379Z,22.96
2023-05-10T03:21:52.481Z,22.95
2023-05-10T03:22:58.647Z,22.96
2023-05-10T03:24:04.741Z,22.92
2023-05-10T03:25:10.822Z,22.97
2023-05-10T03:26:16.977Z,22.99
2023-05-10T03:27:23.084Z,22.98
2023-05-10T03:28:29.124Z,22.95
2023-05-10T03:29:35.241Z,22.94
2023-05-10T03:30:41.334Z,22.93
2023-05-10T03:31:47.559Z,22.92
2023-05-10T03:32:53.595Z,22.94
2023-05-10T03:33:59.607Z,22.94
2023-05-10T03:35:05.695Z,22.94
2023-05-10T03:36:11.802Z,22.97
2023-05-10T03:37:17.886Z,22.93
2023-05-10T03:38:23.986Z,22.93
2023-05-10T03:39:30.069Z,22.9
2023-05-10T03:40:36.160Z,22.93
2023-05-10T03:41:42.267Z,22.92
2023-05-10T03:42:48.353Z,22.94
2023-05-10T03:43:54.452Z,22.89
2023-05-10T03:45:00.575Z,22.9
2023-05-10T03:46:06.628Z,22.94
2023-05-10T03:47:12.735Z,22.96
2023-05-10T03:48:18.836Z,22.96
2023-05-10T03:49:24.925Z,22.92
2023-05-10T03:50:31.023Z,22.94
2023-05-10T03:51:37.109Z,22.91
2023-05-10T03:52:43.114Z,22.89
2023-05-10T03:53:49.211Z,22.91
2023-05-10T03:54:55.394Z,22.86
2023-05-10T03:56:01.509Z,22.88
2023-05-10T03:57:07.582Z,22.92
2023-05-10T03:58:13.709Z,22.94
2023-05-10T03:59:19.770Z,22.95
2023-05-10T04:00:25.868Z,22.93
2023-05-10T04:01:31.995Z,22.93
2023-05-10T04:02:38.604Z,22.91
2023-05-10T04:03:44.242Z,22.89
2023-05-10T04:04:50.259Z,22.91
2023-05-10T04:05:56.357Z,22.88
2023-05-10T04:07:02.456Z,22.91
2023-05-10T04:08:08.520Z,22.95
2023-05-10T04:09:14.642Z,22.9
2023-05-10T04:10:20.716Z,22.93
2023-05-10T04:11:26.828Z,22.92
2023-05-10T04:12:32.904Z,22.93
2023-05-10T04:13:39.036Z,22.95
2023-05-10T04:14:45.019Z,23
2023-05-10T04:15:51.136Z,22.99
2023-05-10T04:16:57.263Z,22.95
2023-05-10T04:18:03.423Z,23.02
2023-05-10T04:19:09.475Z,22.98
2023-05-10T04:20:15.969Z,23
2023-05-10T04:21:21.662Z,22.97
2023-05-10T04:22:27.744Z,22.95
2023-05-10T04:23:33.879Z,22.9
2023-05-10T04:24:39.957Z,22.92
2023-05-10T04:25:46.047Z,22.98
2023-05-10T04:26:52.180Z,22.96
2023-05-10T04:27:58.241Z,22.92
2023-05-10T04:29:04.318Z,23.04
2023-05-10T04:30:10.444Z,22.95
2023-05-10T04:31:16.622Z,22.97
2023-05-10T04:32:22.659Z,22.92
2023-05-10T04:33:28.718Z,22.91
2023-05-10T04:34:34.794Z,22.92
2023-05-10T04:35:40.919Z,22.9
2023-05-10T04:36:46.992Z,22.97
2023-05-10T04:37:53.081Z,22.98
2023-05-10T04:38:59.183Z,22.95
2023-05-10T04:40:05.322Z,22.99
2023-05-10T04:41:11.384Z,23
2023-05-10T04:42:17.463Z,22.94
2023-05-10T04:43:23.560Z,22.92
2023-05-10T04:44:29.681Z,22.93
2023-05-10T04:45:35.729Z,22.94
2023-05-10T04:46:41.852Z,22.92
2023-05-10T04:47:47.906Z,22.93
2023-05-10T04:48:54.037Z,22.95
2023-05-10T04:50:00.119Z,22.95
2023-05-10T04:51:06.215Z,22.98
2023-05-10T04:52:12.313Z,22.89
2023-05-10T04:53:18.401Z,22.92
2023-05-10T04:54:24.543Z,22.95
2023-05-10T04:55:30.721Z,22.99
2023-05-10T04:56:36.701Z,22.96
2023-05-10T04:57:42.783Z,22.97
2023-05-10T04:58:48.870Z,22.95
2023-05-10T04:59:54.880Z,22.96
2023-05-10T05:01:01.080Z,22.97
2023-05-10T05:02:07.304Z,22.97
2023-05-10T05:03:13.340Z,22.92
2023-05-10T05:04:19.356Z,22.94
2023-05-10T05:05:25.480Z,22.99
2023-05-10T05:06:31.573Z,22.94
2023-05-10T05:07:37.652Z,22.93
2023-05-10T05:08:43.743Z,22.92
2023-05-10T05:09:49.755Z,22.9
2023-05-10T05:10:56.022Z,22.93
2023-05-10T05:12:02.028Z,22.94
2023-05-10T05:13:08.285Z,22.93
2023-05-10T05:14:14.242Z,22.93
2023-05-10T05:15:20.306Z,22.92
2023-05-10T05:16:26.410Z,22.91
2023-05-10T05:17:32.574Z,22.91
2023-05-10T05:18:38.599Z,22.92
2023-05-10T05:19:44.748Z,22.92
2023-05-10T05:20:50.783Z,22.93
2023-05-10T05:21:56.899Z,22.9
2023-05-10T05:23:02.989Z,22.93
2023-05-10T05:24:08.977Z,22.89
2023-05-10T05:25:15.153Z,22.92
2023-05-10T05:26:21.282Z,22.92
2023-05-10T05:27:27.347Z,22.94
2023-05-10T05:28:33.436Z,22.93
2023-05-10T05:29:39.519Z,22.92
2023-05-10T05:30:45.628Z,22.94
2023-05-10T05:31:53.361Z,22.9
2023-05-10T05:32:57.892Z,22.9
2023-05-10T05:34:03.923Z,22.89
2023-05-10T05:35:10.012Z,22.9
2023-05-10T05:36:16.110Z,22.9
2023-05-10T05:37:22.202Z,22.89
2023-05-10T05:38:28.315Z,22.91
2023-05-10T05:39:34.557Z,22.92
2023-05-10T05:40:40.478Z,22.89
2023-05-10T05:41:46.488Z,22.88
2023-05-10T05:42:52.624Z,22.87
2023-05-10T05:43:58.807Z,22.91
2023-05-10T05:45:04.858Z,22.9
2023-05-10T05:46:10.993Z,22.89
2023-05-10T05:47:17.061Z,22.93
2023-05-10T05:48:23.210Z,22.91
2023-05-10T05:49:29.250Z,22.97
2023-05-10T05:50:35.341Z,22.94
2023-05-10T05:51:41.433Z,22.95
2023-05-10T05:52:47.533Z,22.94
2023-05-10T05:53:53.629Z,22.98
2023-05-10T05:54:59.647Z,22.96
2023-05-10T05:56:05.832Z,22.93
2023-05-10T05:57:11.902Z,22.94
2023-05-10T05:58:18.002Z,22.96
2023-05-10T05:59:24.090Z,22.92
2023-05-10T06:00:30.192Z,22.9
2023-05-10T06:01:36.317Z,22.97
2023-05-10T06:02:42.484Z,22.94
2023-05-10T06:03:49.759Z,22.99
2023-05-10T06:04:54.561Z,22.96
2023-05-10T06:06:00.656Z,22.96
2023-05-10T06:07:06.690Z,22.98
2023-05-10T06:08:12.770Z,23.03
2023-05-10T06:09:18.963Z,22.95
2023-05-10T06:10:25.039Z,22.82
2023-05-10T06:11:31.160Z,22.46
2023-05-10T06:12:37.231Z,22.57
2023-05-10T06:13:43.356Z,22.65
2023-05-10T06:14:49.475Z,22.5
2023-05-10T06:16:01.709Z,22.72
2023-05-10T06:17:07.813Z,22.83
2023-05-10T06:18:13.931Z,22.72
2023-05-10T06:19:19.928Z,22.66
2023-05-10T06:20:26.064Z,23.06
2023-05-10T06:21:32.145Z,23.19
2023-05-10T06:22:38.241Z,23.22
2023-05-10T06:23:44.312Z,23.21
2023-05-10T06:24:50.317Z,23.22
2023-05-10T06:25:56.511Z,23.24
2023-05-10T06:27:02.622Z,23.37
2023-05-10T06:28:08.713Z,23.48
2023-05-10T06:29:14.790Z,23.54
2023-05-10T06:30:20.894Z,23.49
2023-05-10T06:31:27.063Z,23.41
2023-05-10T06:32:33.115Z,23.42
2023-05-10T06:33:39.171Z,23.45
2023-05-10T06:34:45.300Z,23.53
2023-05-10T06:35:51.374Z,23.57
2023-05-10T06:38:03.573Z,23.6
2023-05-10T06:39:09.656Z,23.74
2023-05-10T06:40:15.758Z,23.81
2023-05-10T06:41:23.955Z,23.71
2023-05-10T06:42:27.952Z,23.67
2023-05-10T06:43:34.034Z,23.69
2023-05-10T06:44:40.129Z,23.71
2023-05-10T06:45:46.257Z,23.74
2023-05-10T06:46:52.344Z,23.71
2023-05-10T06:47:58.452Z,23.73
2023-05-10T06:49:04.555Z,23.85
2023-05-10T06:50:10.601Z,23.92
2023-05-10T06:51:16.689Z,23.91
2023-05-10T06:52:22.782Z,23.91
2023-05-10T06:53:28.890Z,23.95
2023-05-10T06:54:35.007Z,24.11
2023-05-10T06:55:41.124Z,23.99
2023-05-10T06:56:47.160Z,23.92
2023-05-10T06:57:53.247Z,23.94
2023-05-10T06:58:59.386Z,24.02
2023-05-10T07:00:05.536Z,24.07
2023-05-10T07:01:11.701Z,23.98
2023-05-10T07:02:17.807Z,23.67
2023-05-10T07:03:23.815Z,23.76
2023-05-10T07:04:29.842Z,23.76
2023-05-10T07:05:36.228Z,23.79
2023-05-10T07:06:42.025Z,23.79
2023-05-10T07:07:48.121Z,23.79
2023-05-10T07:08:54.221Z,23.71
2023-05-10T07:10:00.350Z,23.72
2023-05-10T07:11:06.409Z,23.72
2023-05-10T07:12:14.675Z,23.88
2023-05-10T07:13:18.640Z,24
2023-05-10T07:14:24.688Z,23.89
2023-05-10T07:15:30.824Z,23.85
2023-05-10T07:16:37.033Z,23.75
2023-05-10T07:17:44.132Z,23.76
2023-05-10T07:18:49.051Z,23.86
2023-05-10T07:19:55.147Z,23.77
2023-05-10T07:21:01.298Z,23.84
2023-05-10T07:22:07.349Z,23.85
2023-05-10T07:23:13.434Z,23.82
2023-05-10T07:24:19.521Z,23.86
2023-05-10T07:25:25.637Z,23.86
2023-05-10T07:26:31.747Z,23.93
2023-05-10T07:27:37.818Z,23.92
2023-05-10T07:28:43.905Z,23.85
2023-05-10T07:29:50.005Z,23.76
2023-05-10T07:30:56.106Z,23.94
2023-05-10T07:32:02.143Z,23.88
2023-05-10T07:33:08.312Z,23.91
2023-05-10T07:34:14.410Z,23.98
2023-05-10T07:35:20.492Z,23.96
2023-05-10T07:36:26.567Z,23.89
2023-05-10T07:37:32.657Z,23.84
2023-05-10T07:38:40.810Z,24.06
2023-05-10T07:39:44.859Z,24
2023-05-10T07:40:50.969Z,24.11
2023-05-10T07:41:57.039Z,23.99
2023-05-10T07:43:03.176Z,24.07
2023-05-10T07:44:09.262Z,24.05
2023-05-10T07:45:15.560Z,24.06
2023-05-10T07:46:21.556Z,23.95
2023-05-10T07:47:27.562Z,23.85
2023-05-10T07:48:33.615Z,23.89
2023-05-10T07:49:39.710Z,23.84
2023-05-10T07:50:45.804Z,23.9
2023-05-10T07:51:51.894Z,23.91
2023-05-10T07:52:57.914Z,23.92
2023-05-10T07:54:04.075Z,24.02
2023-05-10T07:55:10.176Z,24
2023-05-10T07:56:16.287Z,23.95
2023-05-10T07:57:22.412Z,23.9
2023-05-10T07:58:28.452Z,24.08
2023-05-10T07:59:34.569Z,24.05
2023-05-10T08:00:40.669Z,24.07
2023-05-10T08:01:46.789Z,24.06
2023-05-10T08:02:52.873Z,24.05
2023-05-10T08:03:59.037Z,24.12
2023-05-10T08:05:04.949Z,24.15
2023-05-10T08:06:11.056Z,24.1
2023-05-10T08:07:17.228Z,24.06
2023-05-10T08:08:23.323Z,23.9
2023-05-10T08:09:29.433Z,23.77
2023-05-10T08:10:35.514Z,23.69
2023-05-10T08:11:41.595Z,23.69
2023-05-10T08:12:47.707Z,23.79
2023-05-10T08:13:53.790Z,24
2023-05-10T08:14:59.876Z,23.9
2023-05-10T08:16:06.033Z,23.94
2023-05-10T08:17:12.078Z,23.99
2023-05-10T08:18:18.579Z,24.08
2023-05-10T08:19:24.250Z,24.14
2023-05-10T08:20:30.357Z,24.17
2023-05-10T08:21:36.431Z,24.19
2023-05-10T08:22:42.549Z,24.07
2023-05-10T08:23:48.645Z,24.15
2023-05-10T08:24:54.724Z,24.26
2023-05-10T08:26:00.735Z,24.26
2023-05-10T08:27:06.929Z,24.33
2023-05-10T08:28:13.056Z,24.31
2023-05-10T08:29:19.122Z,24.32
2023-05-10T08:30:25.233Z,24.33
2023-05-10T08:31:31.308Z,24.32
2023-05-10T08:32:37.435Z,24.35
2023-05-10T08:33:44.513Z,24.34
2023-05-10T08:34:49.594Z,24.29
2023-05-10T08:35:55.681Z,24.3
2023-05-10T08:37:01.694Z,24.33
2023-05-10T08:38:07.907Z,24.17
2023-05-10T08:39:26.620Z,24.14
2023-05-10T08:40:20.107Z,24.09
2023-05-10T08:41:26.192Z,23.97
2023-05-10T08:42:32.266Z,24.16
2023-05-10T08:43:38.337Z,24.26
2023-05-10T08:44:44.471Z,24.22
2023-05-10T08:45:50.554Z,24.4
2023-05-10T08:46:56.648Z,24.25
2023-05-10T08:48:02.788Z,24.08
2023-05-10T08:49:08.855Z,24.18
2023-05-10T08:50:14.905Z,24.09
2023-05-10T08:51:20.998Z,24.01
2023-05-10T08:52:27.087Z,24.24
2023-05-10T08:53:33.177Z,24.29
2023-05-10T08:54:39.338Z,24.42
2023-05-10T08:55:45.375Z,24.41
2023-05-10T08:56:51.485Z,24.48
2023-05-10T08:57:57.619Z,24.5
2023-05-10T08:59:03.675Z,24.49
2023-05-10T09:00:09.785Z,24.32
2023-05-10T09:01:15.899Z,24.45
2023-05-10T09:02:22.065Z,24.56
2023-05-10T09:03:28.049Z,24.5
2023-05-10T09:04:34.228Z,24.51
2023-05-10T09:05:40.245Z,24.56
2023-05-10T09:06:46.337Z,24.57
2023-05-10T09:07:52.340Z,24.52
2023-05-10T09:08:58.426Z,24.54
2023-05-10T09:10:04.680Z,24.47
2023-05-10T09:11:10.714Z,24.58
2023-05-10T09:12:16.849Z,24.62
2023-05-10T09:13:22.902Z,24.62
2023-05-10T09:14:29.034Z,24.68
2023-05-10T09:15:35.103Z,24.52
2023-05-10T09:16:41.213Z,24.58
2023-05-10T09:17:47.316Z,24.54
2023-05-10T09:18:53.386Z,24.53
2023-05-10T09:19:59.379Z,24.44
2023-05-10T09:21:05.479Z,24.58
2023-05-10T09:22:11.661Z,24.63
2023-05-10T09:23:17.791Z,24.66
2023-05-10T09:24:23.829Z,24.63
2023-05-10T09:25:29.978Z,24.65
2023-05-10T09:26:36.051Z,24.63
2023-05-10T09:27:42.136Z,24.61
2023-05-10T09:28:48.219Z,24.73
2023-05-10T09:29:54.362Z,24.76
2023-05-10T09:31:00.560Z,24.66
2023-05-10T09:32:06.510Z,24.65
2023-05-10T09:33:12.508Z,24.71
2023-05-10T09:34:18.684Z,24.67
2023-05-10T09:35:26.564Z,24.63
2023-05-10T09:36:30.876Z,24.64
2023-05-10T09:37:36.981Z,24.65
2023-05-10T09:38:43.060Z,24.6
2023-05-10T09:40:55.285Z,24.68
2023-05-10T09:42:01.342Z,24.66
2023-05-10T09:43:07.389Z,24.6
2023-05-10T09:44:13.563Z,24.63
2023-05-10T09:45:19.684Z,24.61
2023-05-10T09:46:25.861Z,24.69
2023-05-10T09:47:31.886Z,24.73
2023-05-10T09:48:37.917Z,24.59
2023-05-10T09:49:44.109Z,24.34
2023-05-10T09:50:50.122Z,23.93
2023-05-10T09:51:56.258Z,23.91
2023-05-10T09:53:02.320Z,24.1
2023-05-10T09:54:08.394Z,24.14
2023-05-10T09:55:14.628Z,24.34
2023-05-10T09:56:26.791Z,24.12
2023-05-10T09:57:34.641Z,24.04
2023-05-10T09:58:38.965Z,24.06
2023-05-10T09:59:45.031Z,24.09
2023-05-10T10:00:51.028Z,24.14
2023-05-10T10:01:57.316Z,24.2
2023-05-10T10:03:03.390Z,24.2
2023-05-10T10:04:09.392Z,24.2
2023-05-10T10:05:15.714Z,24.13
2023-05-10T10:06:29.511Z,24.08
2023-05-10T10:07:27.712Z,24.09
2023-05-10T10:08:33.805Z,24
2023-05-10T10:09:39.818Z,24.16
2023-05-10T10:10:46.272Z,24.18
2023-05-10T10:11:51.994Z,24.27
2023-05-10T10:12:58.188Z,24.18
2023-05-10T10:14:04.314Z,24.07
2023-05-10T10:15:10.346Z,24.34
2023-05-10T10:16:16.479Z,24.42
2023-05-10T10:17:22.579Z,24.27
2023-05-10T10:18:28.664Z,24.06
2023-05-10T10:19:34.742Z,24.31
2023-05-10T10:20:40.851Z,24.35
2023-05-10T10:21:46.831Z,24.42
2023-05-10T10:22:52.936Z,24.51
2023-05-10T10:23:59.128Z,24.44
2023-05-10T10:25:05.195Z,24.25
2023-05-10T10:26:11.283Z,24.24
2023-05-10T10:27:17.385Z,24.23
2023-05-10T10:28:23.819Z,23.85
2023-05-10T10:29:29.611Z,23.92
2023-05-10T10:30:35.687Z,23.82
2023-05-10T10:31:41.815Z,23.73
2023-05-10T10:32:47.892Z,23.69
2023-05-10T10:33:53.974Z,23.68
2023-05-10T10:35:00.044Z,23.66
2023-05-10T10:36:06.169Z,23.68
2023-05-10T10:37:12.266Z,23.68
2023-05-10T10:38:18.354Z,23.66
2023-05-10T10:39:24.489Z,23.67
2023-05-10T10:40:32.642Z,23.67
2023-05-10T10:41:36.626Z,23.66
2023-05-10T10:42:42.704Z,23.66
2023-05-10T10:43:48.880Z,23.63
2023-05-10T10:44:54.830Z,23.64
2023-05-10T10:46:01.019Z,23.64
2023-05-10T10:47:07.229Z,23.63
2023-05-10T10:48:13.192Z,23.61
2023-05-10T10:49:19.268Z,23.59
2023-05-10T10:50:25.382Z,23.6
2023-05-10T10:51:31.467Z,23.57
2023-05-10T10:52:37.562Z,23.57
2023-05-10T10:53:43.670Z,23.57
2023-05-10T10:54:49.753Z,23.56
2023-05-10T10:55:55.855Z,23.55
2023-05-10T10:57:01.953Z,23.54
2023-05-10T10:58:08.035Z,23.59
2023-05-10T10:59:14.141Z,23.58
2023-05-10T11:00:20.278Z,23.57
2023-05-10T11:01:26.384Z,23.56
2023-05-10T11:02:32.456Z,23.55
2023-05-10T11:03:38.516Z,23.53
2023-05-10T11:04:44.749Z,23.52
2023-05-10T11:05:50.767Z,23.53
2023-05-10T11:06:56.792Z,23.54
2023-05-10T11:08:02.899Z,23.54
2023-05-10T11:09:08.984Z,23.57
2023-05-10T11:10:15.152Z,23.53
2023-05-10T11:11:21.165Z,23.54
2023-05-10T11:12:27.273Z,23.54
2023-05-10T11:13:33.350Z,23.53
2023-05-10T11:14:39.452Z,23.57
2023-05-10T11:15:45.532Z,23.55
2023-05-10T11:16:51.707Z,23.56
2023-05-10T11:17:57.669Z,23.55
2023-05-10T11:19:04.015Z,23.55
2023-05-10T11:20:09.963Z,23.48
2023-05-10T11:21:16.049Z,23.48
2023-05-10T11:22:22.149Z,23.51
2023-05-10T11:23:28.201Z,23.55
2023-05-10T11:24:34.331Z,23.57
2023-05-10T11:25:40.447Z,23.52
2023-05-10T11:26:46.498Z,23.51
2023-05-10T11:27:52.501Z,23.57
2023-05-10T11:28:58.600Z,23.55
2023-05-10T11:30:05.106Z,23.57
2023-05-10T11:31:10.913Z,23.58
2023-05-10T11:32:16.958Z,23.6
2023-05-10T11:33:23.086Z,23.57
2023-05-10T11:34:29.148Z,23.63
2023-05-10T11:35:35.243Z,23.69
2023-05-10T11:36:41.350Z,23.77
2023-05-10T11:37:47.435Z,23.89
2023-05-10T11:38:53.565Z,23.85
2023-05-10T11:39:59.548Z,23.83
2023-05-10T11:41:05.644Z,23.78
2023-05-10T11:42:11.857Z,23.84
2023-05-10T11:43:17.908Z,23.96
2023-05-10T11:44:24.007Z,23.97
2023-05-10T11:45:30.128Z,24.03
2023-05-10T11:46:36.220Z,24.04
2023-05-10T11:47:42.876Z,23.87
2023-05-10T11:48:48.380Z,23.94
2023-05-10T11:49:54.480Z,23.91
2023-05-10T11:51:00.576Z,23.9
2023-05-10T11:52:06.683Z,23.97
2023-05-10T11:53:12.754Z,23.96
2023-05-10T11:54:18.884Z,24
2023-05-10T11:55:24.967Z,23.96
2023-05-10T11:56:31.082Z,24.06
2023-05-10T11:57:37.157Z,24.05
2023-05-10T11:58:43.241Z,24.04
2023-05-10T11:59:49.355Z,24.03
2023-05-10T12:00:55.347Z,24.05
2023-05-10T12:02:01.536Z,24.09
2023-05-10T12:03:07.763Z,23.98
2023-05-10T12:04:13.807Z,24.02
2023-05-10T12:05:19.791Z,24.07
2023-05-10T12:06:25.934Z,24.06
2023-05-10T12:07:31.987Z,24.04
2023-05-10T12:08:38.091Z,24.02
2023-05-10T12:09:44.529Z,23.99
2023-05-10T12:10:50.307Z,24
2023-05-10T12:11:56.362Z,24.05
2023-05-10T12:13:02.462Z,24.05
2023-05-10T12:14:08.485Z,23.95
2023-05-10T12:15:14.665Z,23.96
2023-05-10T12:16:20.826Z,23.98
2023-05-10T12:17:26.859Z,24.02
2023-05-10T12:18:32.975Z,24.04
2023-05-10T12:19:39.027Z,24.03
2023-05-10T12:20:45.118Z,23.94
2023-05-10T12:21:51.217Z,23.95
2023-05-10T12:22:59.632Z,23.94
2023-05-10T12:24:03.409Z,23.99
2023-05-10T12:25:09.419Z,24.02
2023-05-10T12:26:15.621Z,24.03
2023-05-10T12:27:21.698Z,23.95
2023-05-10T12:28:27.828Z,23.97
2023-05-10T12:29:33.884Z,23.94
2023-05-10T12:30:40.000Z,24.03
2023-05-10T12:31:46.145Z,23.98
2023-05-10T12:32:52.294Z,23.91
2023-05-10T12:33:58.252Z,23.94
2023-05-10T12:35:04.355Z,23.98
2023-05-10T12:36:10.369Z,23.93
2023-05-10T12:37:16.474Z,23.89
2023-05-10T12:38:22.652Z,23.88
2023-05-10T12:39:28.721Z,23.84
2023-05-10T12:40:34.857Z,23.87
2023-05-10T12:41:43.454Z,23.9
2023-05-10T12:42:47.033Z,23.92
2023-05-10T12:43:53.126Z,23.87
2023-05-10T12:44:59.125Z,23.83
2023-05-10T12:46:05.363Z,23.87
2023-05-10T12:47:11.418Z,23.95
2023-05-10T12:48:17.505Z,23.93
2023-05-10T12:49:23.600Z,23.81
2023-05-10T12:50:29.705Z,23.97
2023-05-10T12:51:35.828Z,23.84
2023-05-10T12:52:41.874Z,23.92
2023-05-10T12:53:49.458Z,23.94
2023-05-10T12:54:54.073Z,23.87
2023-05-10T12:56:00.122Z,23.87
2023-05-10T12:57:06.300Z,23.88
2023-05-10T12:58:15.785Z,23.84
2023-05-10T12:59:18.511Z,23.79
2023-05-10T13:00:24.545Z,23.82
2023-05-10T13:01:30.669Z,23.79
2023-05-10T13:02:36.734Z,23.83
2023-05-10T13:03:42.821Z,23.8
2023-05-10T13:04:51.036Z,23.83
2023-05-10T13:05:55.046Z,23.91
2023-05-10T13:07:01.130Z,23.8
2023-05-10T13:08:07.116Z,23.77
2023-05-10T13:09:13.208Z,23.82
2023-05-10T13:10:19.713Z,23.85
2023-05-10T13:11:25.483Z,23.85
2023-05-10T13:12:31.596Z,23.86
2023-05-10T13:13:37.675Z,23.84
2023-05-10T13:14:43.804Z,23.78
2023-05-10T13:15:49.866Z,23.79
2023-05-10T13:16:56.077Z,23.71
2023-05-10T13:18:02.105Z,23.75
2023-05-10T13:19:08.185Z,23.59
2023-05-10T13:20:14.272Z,23.72
2023-05-10T13:21:20.362Z,23.84
2023-05-10T13:22:39.153Z,23.62
2023-05-10T13:23:32.574Z,23.62
2023-05-10T13:24:38.644Z,23.62
2023-05-10T13:25:44.715Z,23.58
2023-05-10T13:26:50.823Z,23.55
2023-05-10T13:27:56.923Z,23.57
2023-05-10T13:29:03.021Z,23.59
2023-05-10T13:30:09.044Z,23.58
2023-05-10T13:31:15.132Z,23.61
2023-05-10T13:32:21.352Z,23.59
2023-05-10T13:33:27.384Z,23.58
2023-05-10T13:34:33.483Z,23.63
2023-05-10T13:35:39.554Z,23.72
2023-05-10T13:36:51.802Z,23.63
2023-05-10T13:37:57.917Z,23.61
2023-05-10T13:39:03.968Z,23.6
2023-05-10T13:40:10.148Z,23.55
2023-05-10T13:41:16.208Z,23.56
2023-05-10T13:42:22.272Z,23.5
2023-05-10T13:43:28.377Z,23.52
2023-05-10T13:44:34.472Z,23.53
2023-05-10T13:45:40.607Z,23.56
2023-05-10T13:46:46.648Z,23.57
2023-05-10T13:47:52.799Z,23.55
2023-05-10T13:48:58.873Z,23.51
2023-05-10T13:50:04.961Z,23.5
2023-05-10T13:51:11.043Z,23.5
2023-05-10T13:52:17.142Z,23.51
2023-05-10T13:54:29.333Z,23.54
2023-05-10T13:55:35.413Z,23.53
2023-05-10T13:56:41.512Z,23.46
2023-05-10T13:57:47.532Z,23.41
2023-05-10T13:58:53.632Z,23.47
2023-05-10T14:01:05.951Z,23.45
2023-05-10T14:02:12.135Z,23.44
2023-05-10T14:03:18.203Z,23.49
2023-05-10T14:04:24.182Z,23.6
2023-05-10T14:05:30.329Z,23.49
2023-05-10T14:06:36.380Z,23.48
2023-05-10T14:07:42.462Z,23.49
2023-05-10T14:08:48.544Z,23.48
2023-05-10T14:09:54.569Z,23.48
2023-05-10T14:11:00.745Z,23.52
2023-05-10T14:12:06.831Z,23.52
2023-05-10T14:13:12.934Z,23.51
2023-05-10T14:14:19.029Z,23.52
2023-05-10T14:15:25.132Z,23.54
2023-05-10T14:16:31.265Z,23.45
2023-05-10T14:17:37.400Z,23.48
2023-05-10T14:18:43.428Z,23.46
2023-05-10T14:19:49.506Z,23.4
2023-05-10T14:20:55.609Z,23.47